createdAt,value
2022-08-28T00:02:04.665Z,90.60
2022-08-28T00:04:31.520Z,90.50
2022-08-28T00:06:58.353Z,90.40
2022-08-28T00:09:25.095Z,90.40
2022-08-28T00:11:51.902Z,90.30
2022-08-28T00:14:21.711Z,90.30
2022-08-28T00:16:48.994Z,90.20
2022-08-28T00:19:17.028Z,90.40
2022-08-28T00:21:44.117Z,90.50
2022-08-28T00:24:12.986Z,90.30
2022-08-28T00:26:58.217Z,90.60
2022-08-28T00:29:24.940Z,90.50
2022-08-28T00:31:51.620Z,90.50
2022-08-28T00:34:18.318Z,90.60
2022-08-28T00:36:45.330Z,90.70
2022-08-28T00:39:12.011Z,90.60
2022-08-28T00:41:41.199Z,90.60
2022-08-28T00:44:08.018Z,90.60
2022-08-28T00:46:34.735Z,90.80
2022-08-28T00:49:01.506Z,90.80
2022-08-28T00:51:47.042Z,90.80
2022-08-28T00:54:13.750Z,90.80
2022-08-28T00:56:40.835Z,90.80
2022-08-28T00:59:10.077Z,90.80
2022-08-28T01:01:38.766Z,90.80
2022-08-28T01:04:06.359Z,90.80
2022-08-28T01:06:36.327Z,90.80
2022-08-28T01:09:03.635Z,91.10
2022-08-28T01:11:31.265Z,90.80
2022-08-28T01:14:01.949Z,90.80
2022-08-28T01:16:33.169Z,90.80
2022-08-28T01:19:03.030Z,90.80
2022-08-28T01:21:39.375Z,90.80
2022-08-28T01:24:11.783Z,90.80
2022-08-28T01:26:38.591Z,90.80
2022-08-28T01:29:05.285Z,90.80
2022-08-28T01:31:33.059Z,90.90
2022-08-28T01:34:18.312Z,90.80
2022-08-28T01:36:46.155Z,90.80
2022-08-28T01:39:17.825Z,90.80
2022-08-28T01:41:46.884Z,90.70
2022-08-28T01:44:14.580Z,90.80
2022-08-28T01:46:45.374Z,90.70
2022-08-28T01:49:13.936Z,90.70
2022-08-28T01:51:41.335Z,90.80
2022-08-28T01:54:08.905Z,90.80
2022-08-28T01:56:36.882Z,90.80
2022-08-28T01:59:05.364Z,90.70
2022-08-28T02:01:32.134Z,90.80
2022-08-28T02:04:01.248Z,90.80
2022-08-28T02:06:27.997Z,90.70
2022-08-28T02:08:55.576Z,90.70
2022-08-28T02:11:26.220Z,90.60
2022-08-28T02:13:54.340Z,91.00
2022-08-28T02:16:23.264Z,91.30
2022-08-28T02:18:50.757Z,91.40
2022-08-28T02:21:17.498Z,91.40
2022-08-28T02:23:44.265Z,91.20
2022-08-28T02:26:12.246Z,91.20
2022-08-28T02:28:38.898Z,91.10
2022-08-28T02:31:06.458Z,91.20
2022-08-28T02:33:33.724Z,91.10
2022-08-28T02:36:00.430Z,91.00
2022-08-28T02:38:27.098Z,91.00
2022-08-28T02:40:54.308Z,91.00
2022-08-28T02:43:20.986Z,91.00
2022-08-28T02:45:48.282Z,91.00
2022-08-28T02:48:17.143Z,91.10
2022-08-28T02:50:45.200Z,91.10
2022-08-28T02:53:11.950Z,91.20
2022-08-28T02:55:39.475Z,91.10
2022-08-28T02:58:06.906Z,91.10
2022-08-28T03:00:33.800Z,91.10
2022-08-28T03:03:01.363Z,91.10
2022-08-28T03:05:28.116Z,91.10
2022-08-28T03:07:55.797Z,91.10
2022-08-28T03:10:22.658Z,91.10
2022-08-28T03:12:49.615Z,91.10
2022-08-28T03:15:18.015Z,91.10
2022-08-28T03:17:44.745Z,91.10
2022-08-28T03:20:12.639Z,91.10
2022-08-28T03:22:58.606Z,91.00
2022-08-28T03:25:25.798Z,91.10
2022-08-28T03:27:52.973Z,91.10
2022-08-28T03:33:27.742Z,91.20
2022-08-28T03:35:55.548Z,91.30
2022-08-28T03:38:22.815Z,91.30
2022-08-28T03:40:52.222Z,91.30
2022-08-28T03:43:21.267Z,91.30
2022-08-28T03:45:59.545Z,91.30
2022-08-28T03:48:27.423Z,91.30
2022-08-28T03:50:54.250Z,91.40
2022-08-28T03:53:24.465Z,91.40
2022-08-28T03:55:51.570Z,91.40
2022-08-28T03:58:19.369Z,91.40
2022-08-28T04:00:48.497Z,91.40
2022-08-28T04:03:15.261Z,91.50
2022-08-28T04:05:43.018Z,91.50
2022-08-28T04:08:11.664Z,91.40
2022-08-28T04:10:38.455Z,91.60
2022-08-28T04:13:05.117Z,91.50
2022-08-28T04:15:32.568Z,91.50
2022-08-28T04:17:59.286Z,91.50
2022-08-28T04:20:26.650Z,91.80
2022-08-28T04:22:57.531Z,91.50
2022-08-28T04:25:27.101Z,91.40
2022-08-28T04:27:53.773Z,91.40
2022-08-28T04:30:20.858Z,91.40
2022-08-28T04:32:47.743Z,91.20
2022-08-28T04:35:14.581Z,91.40
2022-08-28T04:37:43.434Z,91.40
2022-08-28T04:40:10.945Z,91.50
2022-08-28T04:42:38.359Z,91.50
2022-08-28T04:45:06.319Z,91.50
2022-08-28T04:47:39.440Z,91.60
2022-08-28T04:50:06.929Z,91.50
2022-08-28T04:52:33.783Z,91.50
2022-08-28T04:55:00.586Z,91.40
2022-08-28T04:57:27.358Z,91.40
2022-08-28T04:59:54.079Z,91.50
2022-08-28T05:02:20.779Z,91.40
2022-08-28T05:04:48.649Z,91.50
2022-08-28T05:07:15.350Z,91.40
2022-08-28T05:09:42.001Z,91.40
2022-08-28T05:12:10.660Z,91.30
2022-08-28T05:14:37.708Z,91.30
2022-08-28T05:17:04.396Z,91.30
2022-08-28T05:19:33.307Z,91.40
2022-08-28T05:22:00.295Z,91.40
2022-08-28T05:24:26.961Z,91.30
2022-08-28T05:26:55.438Z,91.30
2022-08-28T05:29:24.481Z,91.30
2022-08-28T05:31:52.515Z,91.30
2022-08-28T05:34:20.768Z,91.40
2022-08-28T05:36:47.430Z,91.40
2022-08-28T05:39:14.201Z,91.50
2022-08-28T05:41:42.226Z,91.60
2022-08-28T05:44:09.705Z,91.60
2022-08-28T05:46:37.688Z,92.10
2022-08-28T05:49:09.094Z,92.30
2022-08-28T05:51:36.688Z,92.10
2022-08-28T05:54:03.833Z,92.00
2022-08-28T05:56:32.679Z,92.00
2022-08-28T05:59:00.386Z,91.20
2022-08-28T06:01:28.870Z,91.10
2022-08-28T06:03:57.792Z,91.30
2022-08-28T06:06:25.183Z,91.20
2022-08-28T06:08:59.298Z,91.00
2022-08-28T06:11:27.149Z,91.20
2022-08-28T06:14:02.477Z,91.40
2022-08-28T06:16:30.735Z,91.50
2022-08-28T06:18:57.688Z,91.60
2022-08-28T06:21:25.823Z,91.60
2022-08-28T06:23:52.511Z,91.60
2022-08-28T06:26:19.243Z,91.60
2022-08-28T06:28:45.996Z,91.70
2022-08-28T06:31:24.436Z,91.60
2022-08-28T06:33:54.740Z,91.60
2022-08-28T06:36:22.191Z,91.50
2022-08-28T06:38:49.063Z,91.60
2022-08-28T06:41:15.866Z,91.60
2022-08-28T06:43:42.586Z,91.60
2022-08-28T06:46:09.379Z,91.50
2022-08-28T06:48:37.153Z,91.60
2022-08-28T06:51:05.999Z,91.50
2022-08-28T06:53:33.469Z,91.60
2022-08-28T06:56:02.439Z,91.70
2022-08-28T06:58:29.696Z,91.60
2022-08-28T07:01:03.107Z,91.50
2022-08-28T07:03:32.666Z,91.50
2022-08-28T07:05:59.787Z,91.60
2022-08-28T07:08:26.976Z,91.60
2022-08-28T07:10:53.959Z,91.70
2022-08-28T07:13:21.978Z,91.70
2022-08-28T07:15:51.228Z,91.80
2022-08-28T07:18:17.965Z,91.70
2022-08-28T07:20:45.440Z,91.70
2022-08-28T07:23:13.683Z,91.70
2022-08-28T07:25:41.634Z,91.40
2022-08-28T07:28:08.923Z,91.20
2022-08-28T07:30:35.740Z,91.20
2022-08-28T07:33:02.683Z,91.40
2022-08-28T07:35:29.356Z,91.40
2022-08-28T07:37:56.082Z,91.40
2022-08-28T07:40:22.997Z,91.30
2022-08-28T07:43:09.171Z,91.20
2022-08-28T07:45:36.210Z,91.10
2022-08-28T07:48:11.272Z,91.10
2022-08-28T07:50:38.419Z,91.00
2022-08-28T07:53:08.423Z,90.90
2022-08-28T07:55:35.082Z,90.90
2022-08-28T07:58:03.073Z,90.80
2022-08-28T08:00:29.783Z,90.80
2022-08-28T08:02:56.453Z,90.70
2022-08-28T08:05:23.136Z,90.70
2022-08-28T08:07:49.816Z,90.80
2022-08-28T08:10:20.714Z,90.80
2022-08-28T08:12:47.660Z,90.70
2022-08-28T08:15:14.685Z,90.50
2022-08-28T08:17:42.810Z,90.50
2022-08-28T08:20:10.503Z,90.40
2022-08-28T08:22:37.710Z,90.60
2022-08-28T08:25:05.196Z,90.40
2022-08-28T08:27:32.478Z,90.40
2022-08-28T08:29:59.761Z,90.50
2022-08-28T08:32:26.763Z,90.60
2022-08-28T08:34:55.881Z,90.60
2022-08-28T08:37:22.843Z,90.50
2022-08-28T08:39:50.683Z,90.90
2022-08-28T08:42:23.513Z,90.70
2022-08-28T08:44:51.977Z,90.70
2022-08-28T08:47:45.076Z,90.70
2022-08-28T08:50:29.366Z,90.40
2022-08-28T08:53:09.241Z,90.50
2022-08-28T08:55:41.863Z,90.60
2022-08-28T08:58:34.875Z,90.60
2022-08-28T09:01:22.202Z,90.60
2022-08-28T09:03:55.257Z,90.40
2022-08-28T09:06:40.766Z,90.30
2022-08-28T09:09:15.286Z,90.50
2022-08-28T09:11:41.931Z,90.50
2022-08-28T09:14:29.606Z,90.40
2022-08-28T09:16:56.821Z,90.20
2022-08-28T09:19:23.544Z,90.50
2022-08-28T09:21:51.253Z,90.40
2022-08-28T09:24:22.840Z,90.60
2022-08-28T09:27:00.054Z,90.30
2022-08-28T09:29:31.468Z,90.60
2022-08-28T09:31:58.520Z,90.40
2022-08-28T09:34:25.246Z,90.30
2022-08-28T09:36:53.006Z,90.50
2022-08-28T09:39:31.439Z,90.90
2022-08-28T09:42:33.890Z,90.80
2022-08-28T09:45:00.668Z,90.50
2022-08-28T09:47:47.231Z,90.50
2022-08-28T09:50:34.090Z,90.40
2022-08-28T09:53:09.881Z,90.50
2022-08-28T09:55:41.511Z,90.60
2022-08-28T09:58:08.809Z,90.50
2022-08-28T10:00:37.005Z,90.80
2022-08-28T10:03:20.006Z,90.90
2022-08-28T10:05:46.660Z,90.70
2022-08-28T10:08:28.380Z,90.80
2022-08-28T10:10:59.788Z,90.70
2022-08-28T10:13:31.392Z,90.80
2022-08-28T10:16:04.889Z,90.80
2022-08-28T10:18:31.790Z,90.60
2022-08-28T10:21:03.963Z,90.70
2022-08-28T10:23:49.898Z,90.70
2022-08-28T10:26:25.943Z,90.70
2022-08-28T10:28:56.163Z,91.20
2022-08-28T10:31:31.650Z,90.90
2022-08-28T10:34:11.993Z,90.70
2022-08-28T10:36:38.712Z,90.90
2022-08-28T10:39:05.355Z,90.70
2022-08-28T10:41:46.787Z,90.80
2022-08-28T10:44:15.500Z,90.80
2022-08-28T10:46:49.098Z,90.80
2022-08-28T10:49:28.026Z,90.70
2022-08-28T10:52:06.590Z,90.60
2022-08-28T10:54:43.158Z,90.90
2022-08-28T10:57:30.270Z,90.60
2022-08-28T10:59:58.313Z,90.70
2022-08-28T11:02:25.984Z,91.00
2022-08-28T11:04:58.245Z,90.70
2022-08-28T11:07:36.208Z,90.70
2022-08-28T11:10:17.805Z,90.60
2022-08-28T11:12:44.704Z,91.00
2022-08-28T11:15:37.207Z,90.80
2022-08-28T11:18:16.383Z,90.80
2022-08-28T11:20:53.841Z,91.00
2022-08-28T11:23:23.501Z,90.90
2022-08-28T11:25:54.796Z,90.80
2022-08-28T11:28:25.512Z,90.80
2022-08-28T11:30:58.980Z,90.90
2022-08-28T11:33:37.814Z,91.20
2022-08-28T11:36:08.874Z,90.80
2022-08-28T11:38:41.740Z,90.80
2022-08-28T11:41:14.594Z,90.80
2022-08-28T11:43:43.458Z,90.90
2022-08-28T11:46:24.398Z,90.80
2022-08-28T11:48:53.331Z,90.80
2022-08-28T11:51:38.681Z,90.90
2022-08-28T11:54:08.395Z,90.80
2022-08-28T11:56:55.656Z,90.90
2022-08-28T11:59:25.401Z,90.70
2022-08-28T12:02:20.684Z,91.00
2022-08-28T12:04:47.472Z,91.10
2022-08-28T12:07:14.172Z,91.10
2022-08-28T12:09:45.380Z,90.60
2022-08-28T12:12:13.895Z,91.00
2022-08-28T12:14:40.875Z,90.90
2022-08-28T12:17:20.263Z,91.00
2022-08-28T12:19:56.177Z,91.10
2022-08-28T12:22:24.673Z,90.80
2022-08-28T12:25:02.520Z,90.90
2022-08-28T12:27:30.724Z,91.00
2022-08-28T12:29:59.141Z,91.10
2022-08-28T12:32:26.033Z,91.00
2022-08-28T12:34:58.865Z,91.00
2022-08-28T12:37:43.957Z,91.00
2022-08-28T12:40:34.816Z,91.10
2022-08-28T12:43:06.631Z,91.00
2022-08-28T12:45:34.179Z,91.00
2022-08-28T12:48:03.475Z,90.90
2022-08-28T12:50:32.760Z,91.00
2022-08-28T12:53:00.873Z,91.10
2022-08-28T12:55:28.603Z,90.90
2022-08-28T12:57:55.501Z,91.00
2022-08-28T13:00:23.715Z,91.00
2022-08-28T13:02:53.953Z,91.00
2022-08-28T13:05:31.285Z,90.90
2022-08-28T13:08:00.573Z,90.90
2022-08-28T13:10:34.055Z,90.90
2022-08-28T13:13:06.417Z,91.10
2022-08-28T13:15:42.465Z,90.80
2022-08-28T13:18:09.851Z,91.20
2022-08-28T13:20:37.549Z,90.90
2022-08-28T13:23:04.535Z,91.00
2022-08-28T13:25:33.523Z,91.10
2022-08-28T13:28:03.034Z,91.20
2022-08-28T13:30:33.426Z,91.20
2022-08-28T13:33:00.205Z,91.10
2022-08-28T13:35:26.916Z,91.30
2022-08-28T13:37:58.909Z,91.20
2022-08-28T13:43:15.672Z,91.20
2022-08-28T13:45:44.613Z,91.10
2022-08-28T13:48:16.038Z,91.10
2022-08-28T13:50:47.543Z,91.10
2022-08-28T13:53:16.985Z,91.20
2022-08-28T13:55:44.404Z,91.10
2022-08-28T13:58:11.136Z,91.20
2022-08-28T14:00:41.099Z,91.20
2022-08-28T14:03:26.201Z,91.10
2022-08-28T14:05:54.656Z,91.10
2022-08-28T14:08:21.930Z,91.20
2022-08-28T14:10:48.791Z,91.20
2022-08-28T14:13:15.628Z,91.20
2022-08-28T14:15:42.293Z,91.30
2022-08-28T14:18:08.991Z,91.20
2022-08-28T14:20:37.590Z,91.20
2022-08-28T14:23:04.298Z,91.40
2022-08-28T14:25:32.273Z,91.30
2022-08-28T14:28:01.633Z,91.40
2022-08-28T14:30:29.733Z,91.30
2022-08-28T14:32:56.416Z,91.60
2022-08-28T14:35:23.176Z,91.40
2022-08-28T14:37:49.892Z,91.30
2022-08-28T14:40:16.666Z,91.40
2022-08-28T14:42:45.053Z,91.50
2022-08-28T14:45:11.806Z,91.30
2022-08-28T14:47:39.351Z,91.40
2022-08-28T14:50:07.221Z,91.50
2022-08-28T14:52:34.091Z,91.50
2022-08-28T14:55:00.783Z,91.50
2022-08-28T14:57:28.115Z,91.40
2022-08-28T14:59:54.823Z,91.40
2022-08-28T15:02:21.519Z,91.50
2022-08-28T15:04:48.212Z,91.50
2022-08-28T15:07:15.409Z,91.10
2022-08-28T15:09:42.761Z,91.40
2022-08-28T15:12:11.294Z,90.20
2022-08-28T15:14:38.068Z,91.10
2022-08-28T15:17:05.033Z,91.20
2022-08-28T15:19:31.778Z,91.40
2022-08-28T15:21:58.798Z,91.40
2022-08-28T15:24:27.136Z,91.50
2022-08-28T15:26:56.463Z,91.50
2022-08-28T15:29:23.285Z,91.10
2022-08-28T15:31:50.506Z,91.30
2022-08-28T15:34:25.016Z,91.30
2022-08-28T15:36:55.852Z,91.20
2022-08-28T15:39:45.347Z,91.20
2022-08-28T15:42:12.353Z,91.50
2022-08-28T15:44:39.178Z,91.10
2022-08-28T15:47:07.219Z,91.30
2022-08-28T15:49:36.180Z,91.50
2022-08-28T15:52:10.657Z,91.50
2022-08-28T15:54:37.695Z,91.00
2022-08-28T15:57:04.441Z,91.40
2022-08-28T15:59:47.892Z,91.40
2022-08-28T16:02:17.793Z,91.30
2022-08-28T16:04:44.588Z,91.10
2022-08-28T16:07:11.281Z,89.80
2022-08-28T16:09:38.123Z,90.30
2022-08-28T16:12:06.755Z,91.00
2022-08-28T16:14:33.674Z,91.20
2022-08-28T16:17:05.969Z,91.30
2022-08-28T16:19:38.738Z,91.10
2022-08-28T16:22:05.564Z,91.30
2022-08-28T16:24:32.246Z,91.30
2022-08-28T16:26:59.227Z,91.40
2022-08-28T16:29:26.323Z,91.30
2022-08-28T16:31:53.186Z,91.30
2022-08-28T16:34:20.268Z,91.10
2022-08-28T16:36:48.257Z,91.10
2022-08-28T16:39:15.166Z,91.40
2022-08-28T16:41:44.154Z,91.00
2022-08-28T16:44:10.864Z,91.20
2022-08-28T16:46:37.620Z,89.60
2022-08-28T16:49:04.361Z,91.00
2022-08-28T16:51:31.604Z,90.90
2022-08-28T16:53:58.510Z,90.80
2022-08-28T16:56:26.557Z,88.80
2022-08-28T16:58:53.441Z,90.70
2022-08-28T17:01:21.535Z,89.80
2022-08-28T17:03:52.383Z,90.50
2022-08-28T17:06:23.006Z,88.60
2022-08-28T17:08:53.385Z,90.50
2022-08-28T17:11:24.473Z,88.50
2022-08-28T17:13:51.199Z,91.20
2022-08-28T17:16:18.516Z,91.10
2022-08-28T17:18:47.513Z,90.70
2022-08-28T17:21:36.970Z,90.90
2022-08-28T17:24:04.595Z,90.90
2022-08-28T17:26:31.434Z,91.10
2022-08-28T17:28:58.113Z,90.90
2022-08-28T17:31:25.552Z,91.00
2022-08-28T17:33:52.333Z,91.20
2022-08-28T17:36:30.733Z,91.20
2022-08-28T17:39:02.448Z,91.20
2022-08-28T17:41:29.324Z,91.10
2022-08-28T17:43:56.108Z,91.20
2022-08-28T17:46:23.610Z,91.30
2022-08-28T17:48:55.788Z,91.10
2022-08-28T17:51:40.398Z,91.10
2022-08-28T17:54:10.265Z,91.30
2022-08-28T17:56:39.510Z,91.10
2022-08-28T17:59:07.767Z,91.00
2022-08-28T18:01:34.543Z,91.30
2022-08-28T18:04:01.420Z,91.30
2022-08-28T18:06:28.202Z,91.30
2022-08-28T18:08:54.936Z,91.30
2022-08-28T18:11:22.596Z,91.20
2022-08-28T18:13:49.357Z,91.40
2022-08-28T18:16:16.314Z,91.40
2022-08-28T18:18:43.114Z,91.40
2022-08-28T18:21:10.508Z,91.50
2022-08-28T18:23:37.487Z,91.50
2022-08-28T18:26:07.251Z,91.40
2022-08-28T18:28:33.953Z,91.50
2022-08-28T18:31:01.161Z,91.70
2022-08-28T18:33:28.432Z,91.40
2022-08-28T18:35:55.278Z,91.50
2022-08-28T18:38:22.978Z,91.60
2022-08-28T18:40:49.902Z,91.80
2022-08-28T18:43:20.153Z,91.60
2022-08-28T18:45:46.948Z,91.60
2022-08-28T18:48:13.875Z,91.40
2022-08-28T18:50:45.717Z,91.70
2022-08-28T18:53:13.718Z,91.80
2022-08-28T18:55:40.423Z,91.80
2022-08-28T18:58:07.200Z,91.60
2022-08-28T19:00:34.744Z,91.70
2022-08-28T19:03:01.604Z,91.40
2022-08-28T19:05:28.603Z,91.20
2022-08-28T19:07:56.896Z,90.90
2022-08-28T19:10:33.425Z,91.00
2022-08-28T19:13:01.818Z,91.40
2022-08-28T19:15:29.135Z,91.50
2022-08-28T19:17:56.065Z,91.70
2022-08-28T19:20:23.229Z,91.20
2022-08-28T19:22:50.140Z,91.10
2022-08-28T19:25:22.470Z,91.20
2022-08-28T19:27:59.125Z,91.20
2022-08-28T19:30:27.768Z,90.30
2022-08-28T19:32:55.098Z,91.10
2022-08-28T19:35:24.617Z,90.80
2022-08-28T19:37:54.719Z,90.70
2022-08-28T19:40:22.264Z,90.70
2022-08-28T19:42:50.302Z,90.90
2022-08-28T19:45:18.074Z,90.40
2022-08-28T19:47:45.442Z,89.40
2022-08-28T19:50:13.144Z,89.60
2022-08-28T19:52:40.486Z,90.80
2022-08-28T19:55:09.048Z,89.00
2022-08-28T19:57:36.944Z,89.60
2022-08-28T20:00:05.053Z,88.00
2022-08-28T20:02:31.816Z,88.20
2022-08-28T20:04:59.451Z,89.10
2022-08-28T20:07:26.260Z,88.70
2022-08-28T20:09:54.586Z,89.00
2022-08-28T20:12:21.456Z,90.30
2022-08-28T20:14:48.213Z,89.80
2022-08-28T20:17:15.913Z,89.60
2022-08-28T20:19:42.715Z,88.10
2022-08-28T20:22:09.778Z,89.10
2022-08-28T20:24:38.088Z,88.30
2022-08-28T20:27:05.569Z,87.90
2022-08-28T20:29:34.121Z,89.00
2022-08-28T20:32:01.866Z,88.80
2022-08-28T20:34:29.105Z,88.00
2022-08-28T20:36:56.003Z,88.60
2022-08-28T20:39:23.098Z,88.30
2022-08-28T20:41:50.404Z,88.50
2022-08-28T20:44:18.770Z,87.40
2022-08-28T20:46:51.110Z,87.80
2022-08-28T20:49:21.920Z,86.90
2022-08-28T20:51:58.943Z,87.10
2022-08-28T20:54:30.239Z,86.80
2022-08-28T20:56:58.759Z,87.00
2022-08-28T20:59:34.401Z,87.60
2022-08-28T21:02:07.625Z,87.40
2022-08-28T21:04:37.060Z,87.80
2022-08-28T21:07:05.525Z,87.90
2022-08-28T21:09:40.951Z,88.50
2022-08-28T21:12:20.978Z,87.80
2022-08-28T21:14:51.574Z,87.10
2022-08-28T21:17:20.860Z,87.30
2022-08-28T21:19:57.544Z,87.30
2022-08-28T21:22:24.323Z,87.80
2022-08-28T21:24:51.056Z,88.00
2022-08-28T21:27:19.566Z,88.30
2022-08-28T21:29:46.264Z,88.20
2022-08-28T21:32:13.018Z,88.40
2022-08-28T21:34:40.011Z,88.50
2022-08-28T21:37:06.707Z,88.50
2022-08-28T21:39:34.527Z,88.50
2022-08-28T21:42:02.103Z,88.10
2022-08-28T21:44:29.056Z,88.20
2022-08-28T21:46:55.738Z,88.30
2022-08-28T21:49:24.746Z,88.60
2022-08-28T21:51:51.431Z,88.70
2022-08-28T21:54:19.483Z,89.00
2022-08-28T21:56:46.376Z,89.50
2022-08-28T21:59:15.189Z,89.60
2022-08-28T22:01:42.057Z,88.10
2022-08-28T22:04:09.319Z,89.00
2022-08-28T22:06:36.263Z,89.30
2022-08-28T22:09:04.976Z,90.00
2022-08-28T22:11:32.487Z,90.10
2022-08-28T22:13:59.595Z,90.40
2022-08-28T22:16:26.914Z,90.20
2022-08-28T22:18:54.183Z,89.40
2022-08-28T22:21:41.656Z,89.00
2022-08-28T22:24:09.340Z,90.00
2022-08-28T22:26:36.106Z,90.50
2022-08-28T22:29:03.016Z,90.70
2022-08-28T22:31:29.771Z,90.60
2022-08-28T22:33:56.529Z,90.50
2022-08-28T22:36:23.207Z,90.30
2022-08-28T22:38:56.259Z,90.20
2022-08-28T22:41:23.321Z,90.60
2022-08-28T22:43:51.300Z,90.00
2022-08-28T22:46:19.255Z,90.50
2022-08-28T22:48:46.066Z,90.80
2022-08-28T22:51:13.975Z,90.20
2022-08-28T22:53:41.986Z,90.10
2022-08-28T22:56:09.371Z,89.70
2022-08-28T22:58:36.231Z,90.10
2022-08-28T23:01:06.266Z,89.90
2022-08-28T23:03:33.048Z,90.10
2022-08-28T23:05:59.753Z,89.80
2022-08-28T23:08:29.656Z,90.00
2022-08-28T23:10:59.599Z,90.20
2022-08-28T23:13:26.842Z,89.60
2022-08-28T23:15:53.605Z,90.00
2022-08-28T23:18:21.137Z,90.00
2022-08-28T23:20:50.438Z,90.00
2022-08-28T23:23:18.530Z,90.10
2022-08-28T23:25:45.298Z,90.50
2022-08-28T23:28:13.878Z,90.50
2022-08-28T23:30:48.231Z,90.50
2022-08-28T23:33:23.961Z,90.60
2022-08-28T23:35:51.470Z,90.60
2022-08-28T23:38:18.388Z,90.30
2022-08-28T23:40:46.209Z,90.70
2022-08-28T23:43:12.900Z,90.60
2022-08-28T23:45:41.310Z,90.30
2022-08-28T23:48:08.238Z,89.80
2022-08-28T23:50:35.085Z,90.10
2022-08-28T23:53:03.447Z,90.20
2022-08-28T23:55:33.551Z,90.40
2022-08-28T23:58:00.370Z,90.40
